Decoded Metar for PAFB (FORT WAINWRIGHT in AK, USA) (IATA:FBK) | Meteo·Mobile Aviation Weather
aviador You're here:

PAFB Decoded Metar

FORT WAINWRIGHT in AK, USA
Report Time2019-05-21 09:58:00
UTC Time2019-05-21 10:34:05
Flight Rules vfr VFR
WindCalm
Visibility9999 m
Phenomena:N/A
Clouds:N/A
Expected CloudBase > 3,200 ft AGL from Temp-Dew spread
CeilingNone
Temp11°C (ISA -3)
Dew Point03°C (58% RH)
AAT9.5°C
QNH1012 hPa
Density Alt220 ft
Elevation449 ft
Report Wrong Elevation
Raw Report
PAFB 210958Z AUTO 00000KT 10SM CLR 11/03 A2987=

Extra information for PAFB:More info

Metar Taf Metar & Taf Last 4 Metars F.Rules Stats Wind Profile Meteogram Temp Stats Airport Information Weather charts Add Link Nearby VenuesMetar ALERT Operation Metar Decoded Social comments

AIRNAV info for PAFB